Time;durP1;ratioP1;P1;durP2;ratioP2;P2;SDS_P1;SDS_P2;PMS_P1;PMS_P2;Temp;Humidity;BMP_temperature;BMP_pressure;BME280_temperature;BME280_humidity;BME280_pressure;Samples;Min_cycle;Max_cycle;Signal;HPM_P1;HPM_P2
2021/07/26 00:00:17;;;;;;;7.13;3.40;;;19.50;96.90;;;19.35;90.57;99838.88;5030952;28;20076;-84
2021/07/26 00:02:44;;;;;;;6.10;3.83;;;19.50;96.90;;;19.33;90.49;99828.09;5030792;28;20081;-84
2021/07/26 00:05:13;;;;;;;5.60;3.60;;;19.50;96.90;;;19.34;90.66;99838.06;5030921;28;20053;-84
2021/07/26 00:07:40;;;;;;;10.43;3.80;;;19.40;96.80;;;19.32;90.54;99831.97;5030264;28;20119;-84
2021/07/26 00:10:08;;;;;;;7.70;4.05;;;19.50;96.80;;;19.34;90.38;99837.22;5030749;28;20137;-84
2021/07/26 00:12:36;;;;;;;7.15;3.60;;;19.40;96.80;;;19.32;90.52;99836.63;5030432;28;20053;-84
2021/07/26 00:15:07;;;;;;;6.13;3.65;;;19.40;96.70;;;19.32;90.42;99837.50;5030390;28;20038;-84
2021/07/26 00:17:35;;;;;;;8.65;3.95;;;19.40;96.70;;;19.31;90.24;99837.75;5011975;28;20049;-84
2021/07/26 00:20:02;;;;;;;5.78;3.63;;;19.40;96.60;;;19.30;90.11;99836.06;5030454;28;20038;-84
2021/07/26 00:22:29;;;;;;;6.32;3.92;;;19.40;96.70;;;19.29;90.23;99839.94;5030280;28;20081;-84
2021/07/26 00:24:56;;;;;;;6.78;3.50;;;19.40;96.70;;;19.27;90.02;99836.59;5030317;28;20333;-84
2021/07/26 00:27:24;;;;;;;5.70;3.60;;;19.40;96.70;;;19.27;90.10;99844.88;5029723;28;20140;-84
2021/07/26 00:29:51;;;;;;;7.38;3.90;;;19.40;96.80;;;19.25;90.13;99838.78;5026847;28;20099;-84
2021/07/26 00:32:19;;;;;;;6.75;3.42;;;19.30;96.70;;;19.23;89.89;99839.03;5029974;28;20061;-84
2021/07/26 00:34:47;;;;;;;6.53;3.85;;;19.40;96.70;;;19.22;90.04;99844.81;5029895;28;20132;-84
2021/07/26 00:37:14;;;;;;;6.53;4.10;;;19.30;96.70;;;19.20;89.80;99842.31;5029306;28;20478;-84
2021/07/26 00:39:42;;;;;;;8.45;4.05;;;19.30;96.80;;;19.21;90.02;99834.84;5029890;28;20222;-84
2021/07/26 00:42:09;;;;;;;7.35;3.80;;;19.30;96.90;;;19.21;89.94;99837.59;5029726;28;20152;-84
2021/07/26 00:44:37;;;;;;;7.32;3.47;;;19.30;96.80;;;19.20;90.03;99838.72;5029733;28;20049;-84
2021/07/26 00:47:04;;;;;;;9.43;3.63;;;19.30;96.80;;;19.17;89.95;99841.97;5029013;28;20221;-84
2021/07/26 00:49:33;;;;;;;7.50;4.10;;;19.30;96.80;;;19.14;90.00;99840.59;5029455;28;20581;-84
2021/07/26 00:52:01;;;;;;;7.00;3.83;;;19.30;96.80;;;19.14;89.89;99849.69;5029174;28;20502;-84
2021/07/26 00:54:31;;;;;;;7.47;3.40;;;19.20;96.80;;;19.14;90.23;99843.34;5029630;28;20091;-84
2021/07/26 00:57:00;;;;;;;8.85;3.42;;;19.30;96.90;;;19.13;90.15;99842.53;5029148;28;20048;-84
2021/07/26 00:59:28;;;;;;;9.10;3.83;;;19.30;96.90;;;19.13;90.17;99839.75;5029774;28;20131;-83
2021/07/26 01:01:56;;;;;;;6.00;3.45;;;19.30;96.80;;;19.14;90.20;99835.06;5029410;28;20045;-83
2021/07/26 01:04:24;;;;;;;9.50;4.10;;;19.30;96.70;;;19.12;90.03;99828.97;5029371;28;20490;-84
2021/07/26 01:06:54;;;;;;;6.57;3.83;;;19.30;96.70;;;19.11;90.25;99822.63;5028806;28;20037;-83
2021/07/26 01:09:21;;;;;;;5.88;3.30;;;19.30;96.60;;;19.10;90.10;99820.94;5029485;28;20097;-83
2021/07/26 01:11:49;;;;;;;7.50;3.47;;;19.30;96.60;;;19.09;90.07;99830.31;5029247;28;20045;-84
2021/07/26 01:14:17;;;;;;;5.65;3.15;;;19.30;96.60;;;19.06;89.86;99830.84;5011525;28;20138;-84
2021/07/26 01:16:44;;;;;;;6.53;3.67;;;19.30;96.60;;;19.08;90.03;99828.66;5028470;28;20065;-84
2021/07/26 01:19:12;;;;;;;9.35;3.80;;;19.30;96.40;;;19.09;89.89;99835.81;5029265;28;20046;-84
2021/07/26 01:21:40;;;;;;;6.90;3.65;;;19.30;96.30;;;19.08;89.63;99830.59;5029162;28;20124;-83
2021/07/26 01:24:08;;;;;;;5.07;3.22;;;19.30;96.20;;;19.06;89.63;99825.31;5029295;28;20573;-83
2021/07/26 01:26:35;;;;;;;5.28;3.20;;;19.30;96.20;;;19.07;89.75;99815.94;5010858;28;20079;-83
2021/07/26 01:29:06;;;;;;;7.30;2.97;;;19.30;96.00;;;19.03;89.62;99820.31;5029263;28;20120;-84
2021/07/26 01:31:34;;;;;;;6.22;3.47;;;19.30;95.80;;;19.04;89.63;99832.16;5029119;28;20038;-84
2021/07/26 01:34:02;;;;;;;6.22;3.60;;;19.30;95.90;;;19.05;89.47;99831.09;5029269;28;20050;-84
2021/07/26 01:36:29;;;;;;;5.40;3.03;;;19.30;95.80;;;19.03;89.23;99834.09;5028785;28;20064;-84
2021/07/26 01:38:58;;;;;;;7.47;3.20;;;19.30;95.90;;;19.04;89.11;99837.69;5029085;28;20076;-84
2021/07/26 01:41:30;;;;;;;6.30;3.10;;;19.20;95.70;;;19.02;88.98;99840.72;5028775;28;20045;-84
2021/07/26 01:44:03;;;;;;;6.40;3.33;;;19.20;95.70;;;19.00;88.92;99842.91;5029060;28;20488;-84
2021/07/26 01:47:01;;;;;;;5.60;2.97;;;19.20;95.70;;;18.99;88.72;99841.22;5028258;28;20119;-84
2021/07/26 01:49:59;;;;;;;7.38;2.95;;;19.10;95.80;;;18.98;89.05;99836.78;5011069;28;20428;-83
2021/07/26 01:52:27;;;;;;;7.15;2.78;;;19.10;95.90;;;18.98;88.91;99833.22;5015335;28;20065;-84
2021/07/26 01:54:56;;;;;;;5.53;3.15;;;19.10;95.90;;;18.94;88.78;99838.41;5028853;28;20133;-84
2021/07/26 01:57:24;;;;;;;8.65;3.40;;;19.10;96.10;;;18.93;89.04;99837.56;5028288;28;20053;-84
2021/07/26 01:59:52;;;;;;;5.88;3.22;;;19.00;96.00;;;18.95;88.74;99845.59;5029001;28;20038;-84
2021/07/26 02:02:19;;;;;;;7.75;3.35;;;19.10;96.00;;;18.94;88.78;99850.28;5013250;28;20046;-84
2021/07/26 02:04:46;;;;;;;7.35;3.15;;;19.10;96.00;;;18.93;88.88;99843.09;5032826;28;20131;-84
2021/07/26 02:07:13;;;;;;;10.25;3.67;;;19.10;96.00;;;18.91;88.49;99845.28;5032174;28;20049;-84
2021/07/26 02:09:41;;;;;;;5.00;3.30;;;19.00;95.90;;;18.91;88.46;99842.50;5032492;28;20057;-84
2021/07/26 02:12:10;;;;;;;7.10;3.20;;;19.00;96.00;;;18.89;88.62;99843.88;5032588;28;20099;-84
2021/07/26 02:14:37;;;;;;;6.55;3.40;;;19.00;96.00;;;18.88;88.74;99844.94;5032505;28;20047;-84
2021/07/26 02:17:05;;;;;;;5.40;3.08;;;19.00;96.00;;;18.89;88.55;99846.63;5031590;28;20041;-84
2021/07/26 02:19:33;;;;;;;6.50;3.50;;;19.00;96.00;;;18.89;88.60;99846.63;5032448;28;20067;-84
2021/07/26 02:22:00;;;;;;;5.95;3.20;;;19.00;96.00;;;18.88;88.53;99845.78;5014440;28;20472;-83
2021/07/26 02:24:27;;;;;;;6.30;3.42;;;19.00;96.00;;;18.87;88.43;99851.56;5032281;28;20560;-84
2021/07/26 02:26:55;;;;;;;7.25;3.35;;;19.00;96.10;;;18.87;88.52;99859.84;5031686;28;20498;-84
2021/07/26 02:29:23;;;;;;;6.05;3.65;;;19.00;96.10;;;18.85;88.79;99856.47;5032312;28;20056;-83
2021/07/26 02:31:51;;;;;;;6.80;3.35;;;19.00;96.20;;;18.84;88.53;99857.56;5032079;28;20052;-83
2021/07/26 02:34:18;;;;;;;7.50;3.40;;;19.00;96.20;;;18.84;88.68;99858.41;5032330;28;20095;-83
2021/07/26 02:36:45;;;;;;;6.05;3.47;;;19.00;96.20;;;18.83;88.66;99850.38;5031676;28;20498;-84
2021/07/26 02:39:12;;;;;;;7.60;3.00;;;19.00;96.10;;;18.81;88.63;99856.19;5028906;28;20152;-84
2021/07/26 02:41:43;;;;;;;6.43;3.00;;;19.00;96.30;;;18.81;88.69;99856.19;5031997;28;20076;-83
2021/07/26 02:44:10;;;;;;;5.63;3.00;;;18.90;96.40;;;18.75;88.66;99858.00;5032003;28;20796;-84
2021/07/26 02:46:39;;;;;;;10.63;3.53;;;18.90;96.40;;;18.80;88.78;99873.78;5031311;28;20107;-84
2021/07/26 02:49:06;;;;;;;5.50;3.05;;;18.80;96.30;;;18.78;88.68;99861.34;5031939;28;20143;-84
2021/07/26 02:51:33;;;;;;;6.15;3.28;;;18.90;96.50;;;18.74;88.82;99866.53;5031776;28;20045;-84
2021/07/26 02:54:01;;;;;;;5.70;3.28;;;18.90;96.50;;;18.74;88.80;99869.28;5031734;28;20053;-84
2021/07/26 02:56:28;;;;;;;6.70;3.08;;;18.80;96.40;;;18.75;88.98;99880.06;5030984;28;20124;-84
2021/07/26 02:58:55;;;;;;;8.50;3.17;;;18.80;96.50;;;18.72;88.75;99875.03;5013839;28;20089;-83
2021/07/26 03:01:22;;;;;;;6.70;3.13;;;18.80;96.50;;;18.70;88.79;99877.22;5013799;28;20137;-84
2021/07/26 03:03:51;;;;;;;9.50;3.20;;;18.80;96.50;;;18.71;88.94;99878.03;5031807;28;20091;-83
2021/07/26 03:06:20;;;;;;;6.15;3.13;;;18.80;96.50;;;18.69;88.88;99883.81;5030964;28;20555;-84
2021/07/26 03:08:47;;;;;;;8.13;3.50;;;18.80;96.60;;;18.67;88.85;99877.72;5013869;28;20053;-84
2021/07/26 03:11:14;;;;;;;6.93;3.80;;;18.80;96.70;;;18.67;89.11;99882.41;5031515;28;20116;-84
2021/07/26 03:13:44;;;;;;;8.73;3.35;;;18.80;96.70;;;18.65;89.19;99879.06;5030931;28;20136;-83
2021/07/26 03:16:13;;;;;;;7.40;3.28;;;18.80;96.80;;;18.65;89.17;99888.16;5031116;28;20510;-83
2021/07/26 03:18:41;;;;;;;9.88;3.20;;;18.80;96.80;;;18.66;89.20;99897.28;5031971;28;20111;-84
2021/07/26 03:21:15;;;;;;;4.57;2.70;;;18.70;96.80;;;18.66;88.87;99897.28;5032037;28;20498;-84
2021/07/26 03:23:42;;;;;;;5.57;3.20;;;18.70;96.80;;;18.63;89.03;99898.59;5031722;28;20069;-83
2021/07/26 03:26:10;;;;;;;5.65;2.88;;;18.70;96.90;;;18.62;88.98;99896.94;5012870;28;20797;-83
2021/07/26 03:28:37;;;;;;;8.02;3.53;;;18.70;96.90;;;18.60;89.19;99899.13;5031308;28;20056;-83
2021/07/26 03:31:04;;;;;;;7.10;3.20;;;18.60;97.00;;;18.58;89.16;99895.75;5031238;28;20045;-84
2021/07/26 03:33:32;;;;;;;5.55;3.00;;;18.60;96.90;;;18.56;89.08;99897.94;5031210;28;20124;-84
2021/07/26 03:35:59;;;;;;;9.23;3.63;;;18.60;96.80;;;18.54;89.16;99900.13;5030721;28;20081;-83
2021/07/26 03:38:27;;;;;;;6.88;2.85;;;18.60;96.80;;;18.55;88.95;99901.81;5031235;28;20053;-84
2021/07/26 03:40:55;;;;;;;5.28;3.00;;;18.60;96.90;;;18.54;88.94;99900.97;5031110;28;20041;-83
2021/07/26 03:43:22;;;;;;;5.68;3.25;;;18.60;96.80;;;18.51;89.23;99903.41;5031047;28;20054;-84
2021/07/26 03:45:49;;;;;;;6.43;3.25;;;18.50;96.80;;;18.52;88.87;99913.31;5030695;28;20095;-84
2021/07/26 03:48:16;;;;;;;8.20;3.30;;;18.60;96.70;;;18.51;89.03;99906.97;5030879;28;20069;-83
2021/07/26 03:50:44;;;;;;;5.60;3.28;;;18.60;96.90;;;18.51;88.76;99911.66;5013009;28;20065;-83
2021/07/26 03:53:11;;;;;;;6.40;3.10;;;18.60;97.00;;;18.47;89.28;99911.31;5030834;28;20650;-83
2021/07/26 03:55:40;;;;;;;6.80;3.88;;;18.50;97.00;;;18.47;89.31;99905.00;5030716;28;20045;-83
2021/07/26 03:58:07;;;;;;;5.45;3.40;;;18.60;97.10;;;18.47;89.42;99911.31;5012180;28;20050;-83
2021/07/26 04:00:34;;;;;;;7.50;3.42;;;18.60;97.10;;;18.48;89.33;99914.91;5030655;28;20053;-83
2021/07/26 04:03:11;;;;;;;6.75;3.28;;;18.60;97.00;;;18.47;89.72;99913.25;5030526;28;20140;-84
2021/07/26 04:05:40;;;;;;;7.20;3.40;;;18.60;96.90;;;18.46;89.56;99911.56;5030509;28;20303;-84
2021/07/26 04:08:13;;;;;;;7.47;3.00;;;18.60;96.80;;;18.47;89.35;99907.75;5029921;28;20053;-84
2021/07/26 04:10:45;;;;;;;7.10;3.42;;;18.60;96.60;;;18.44;89.69;99911.00;5030604;28;20042;-83
2021/07/26 04:13:12;;;;;;;5.55;3.22;;;18.70;96.80;;;18.45;89.79;99913.50;5030525;28;20054;-84
2021/07/26 04:15:44;;;;;;;7.53;3.70;;;18.70;96.70;;;18.48;89.74;99914.91;5030120;28;20482;-83
2021/07/26 04:18:11;;;;;;;5.50;3.25;;;18.80;96.50;;;18.49;89.82;99909.16;5029819;28;20046;-83
2021/07/26 04:20:39;;;;;;;12.98;3.65;;;18.80;96.30;;;18.49;89.98;99908.31;5030307;28;20038;-84
2021/07/26 04:23:06;;;;;;;7.03;3.28;;;18.90;96.30;;;18.50;89.95;99910.81;5030002;28;20041;-84
2021/07/26 04:25:33;;;;;;;5.90;3.00;;;18.90;96.30;;;18.52;90.27;99918.81;5029009;28;20120;-83
2021/07/26 04:28:02;;;;;;;7.43;3.28;;;19.00;96.20;;;18.50;91.01;99909.97;5029415;28;20053;-84
2021/07/26 04:30:29;;;;;;;7.90;3.30;;;19.00;96.20;;;18.51;90.38;99903.41;5026569;28;20099;-84
2021/07/26 04:32:57;;;;;;;5.18;3.33;;;19.00;95.80;;;18.49;90.80;99903.63;5029909;28;20124;-84
2021/07/26 04:35:24;;;;;;;8.57;3.20;;;19.00;95.70;;;18.50;90.98;99898.97;5029831;28;20502;-84
2021/07/26 04:37:51;;;;;;;8.32;4.03;;;19.00;95.60;;;18.54;90.67;99908.38;5029406;28;20045;-83
2021/07/26 04:40:18;;;;;;;6.25;3.28;;;19.10;95.50;;;18.57;90.94;99916.16;5029804;28;20039;-84
2021/07/26 04:42:45;;;;;;;6.57;3.40;;;19.20;95.50;;;18.58;90.75;99912.28;5029865;28;20069;-83
2021/07/26 04:45:14;;;;;;;7.05;3.60;;;19.30;95.50;;;18.60;90.83;99910.16;5029913;28;20053;-83
2021/07/26 04:47:42;;;;;;;8.20;3.25;;;19.30;95.10;;;18.61;90.71;99909.03;5029491;28;20046;-85
2021/07/26 04:50:11;;;;;;;6.68;3.30;;;19.40;94.80;;;18.62;90.87;99913.50;5029896;28;20128;-85
2021/07/26 04:52:39;;;;;;;7.03;3.40;;;19.50;94.70;;;18.66;90.94;99917.41;5029608;28;20564;-85
2021/07/26 04:55:08;;;;;;;6.30;3.50;;;19.60;94.40;;;18.68;91.33;99912.47;5029554;28;20160;-85
2021/07/26 04:57:36;;;;;;;14.35;4.20;;;19.70;94.30;;;18.71;91.29;99911.94;5028856;28;20073;-85
2021/07/26 05:00:04;;;;;;;6.70;3.83;;;19.80;93.80;;;18.74;91.35;99914.22;5029348;28;20468;-86
2021/07/26 05:02:32;;;;;;;7.22;3.70;;;20.00;93.00;;;18.82;91.27;99920.41;5029267;28;20073;-86
2021/07/26 05:05:01;;;;;;;7.40;4.07;;;20.20;92.30;;;18.85;90.86;99917.97;5011517;28;20655;-85
2021/07/26 05:07:28;;;;;;;7.30;3.70;;;20.40;91.30;;;18.90;90.69;99915.28;5028601;28;20153;-85
2021/07/26 05:09:55;;;;;;;8.48;4.10;;;20.50;90.60;;;18.96;90.22;99918.94;5029145;28;20053;-83
2021/07/26 05:12:22;;;;;;;8.65;3.80;;;20.70;89.50;;;18.97;90.66;99925.31;5011421;28;20141;-83
2021/07/26 05:14:54;;;;;;;6.70;4.07;;;20.80;89.60;;;19.03;90.50;99925.13;5029282;28;20457;-84
2021/07/26 05:17:24;;;;;;;;;;;20.90;89.00;;;19.07;90.42;99909.72;5029197;28;20045;-84
2021/07/26 05:19:53;;;;;;;10.27;3.97;;;20.90;89.00;;;19.11;90.35;99921.94;5029295;28;19953;-84
2021/07/26 05:22:20;;;;;;;7.90;3.60;;;21.00;88.20;;;19.14;90.23;99915.06;5029073;28;20111;-84
2021/07/26 05:24:48;;;;;;;9.50;3.65;;;21.20;88.00;;;19.22;90.24;99916.53;5029082;28;20099;-84
2021/07/26 05:27:16;;;;;;;8.07;4.03;;;21.30;87.70;;;19.26;90.17;99923.19;5010666;28;20107;-84
2021/07/26 05:29:43;;;;;;;6.97;3.30;;;21.40;87.70;;;19.29;90.58;99918.00;5029114;28;20046;-84
2021/07/26 05:32:11;;;;;;;6.93;3.42;;;21.40;87.80;;;19.33;89.82;99934.88;5028827;28;20045;-84
2021/07/26 05:34:38;;;;;;;6.07;3.50;;;21.50;86.90;;;19.36;90.45;99934.34;5029046;28;20049;-84
2021/07/26 05:37:07;;;;;;;8.07;3.80;;;21.50;86.90;;;19.40;90.74;99929.16;5027848;28;20046;-84
2021/07/26 05:39:34;;;;;;;7.32;3.30;;;21.60;87.10;;;19.45;91.25;99938.34;5028919;28;20088;-84
2021/07/26 05:42:02;;;;;;;5.15;3.17;;;21.70;87.40;;;19.49;90.72;99933.97;5028844;28;20053;-84
2021/07/26 05:44:30;;;;;;;9.48;3.67;;;21.80;86.30;;;19.54;91.84;99930.44;5028889;28;20042;-84
2021/07/26 05:46:57;;;;;;;6.68;3.03;;;21.90;87.40;;;19.60;91.07;99932.16;5010353;28;20069;-84
2021/07/26 05:49:25;;;;;;;7.45;3.58;;;22.00;86.40;;;19.66;90.40;99939.41;5028901;28;20095;-85
2021/07/26 05:51:52;;;;;;;7.38;3.15;;;22.00;85.90;;;19.71;90.25;99930.38;5028729;28;20569;-84
2021/07/26 05:54:21;;;;;;;6.55;3.20;;;22.10;85.50;;;19.78;90.12;99936.56;5028944;28;20077;-85
2021/07/26 05:56:49;;;;;;;6.53;3.25;;;22.20;85.30;;;19.89;90.71;99938.28;5028156;28;20127;-84
2021/07/26 05:59:17;;;;;;;6.35;2.92;;;22.30;85.30;;;19.98;90.11;99929.56;5028909;28;20053;-84
2021/07/26 06:01:48;;;;;;;8.80;4.07;;;22.70;84.00;;;20.12;89.87;99933.53;5028792;28;20040;-84
2021/07/26 06:04:19;;;;;;;10.18;3.63;;;22.90;83.30;;;20.27;89.36;99928.16;5028705;28;20080;-84
2021/07/26 06:06:48;;;;;;;6.85;3.20;;;23.50;81.00;;;20.45;89.58;99935.22;5028109;28;20188;-84
2021/07/26 06:09:16;;;;;;;7.57;3.30;;;24.10;80.00;;;20.64;87.96;99938.44;5028621;28;20042;-84
2021/07/26 06:11:46;;;;;;;5.60;2.95;;;25.30;75.00;;;20.80;87.63;99938.53;5028505;28;20050;-84
2021/07/26 06:14:14;;;;;;;8.07;3.38;;;26.60;68.60;;;20.87;85.93;99941.91;5028749;28;20072;-84
2021/07/26 06:16:42;;;;;;;5.15;2.95;;;27.00;65.20;;;20.91;85.17;99948.56;5027870;28;20111;-84
2021/07/26 06:19:10;;;;;;;6.55;3.30;;;26.90;64.00;;;20.96;85.10;99943.06;5028921;28;20049;-84
2021/07/26 06:21:42;;;;;;;6.43;3.28;;;27.20;64.60;;;21.02;84.60;99939.22;5029196;28;20117;-84
2021/07/26 06:24:10;;;;;;;7.63;3.00;;;27.70;61.90;;;21.06;84.67;99940.34;5029295;28;20042;-84
2021/07/26 06:26:37;;;;;;;7.82;3.17;;;27.50;63.10;;;21.14;85.55;99946.50;5028064;28;20597;-84
2021/07/26 06:29:06;;;;;;;6.97;3.17;;;26.90;65.70;;;21.16;86.10;99939.56;5028703;28;20541;-84
2021/07/26 06:31:34;;;;;;;5.70;3.10;;;26.30;68.30;;;21.17;86.20;99934.88;5031257;28;20064;-84
2021/07/26 06:34:02;;;;;;;5.25;2.88;;;25.90;70.00;;;21.19;84.64;99938.19;5031793;28;20072;-84
2021/07/26 06:36:29;;;;;;;6.55;2.65;;;25.50;70.50;;;21.21;83.46;99936.00;5028539;28;20137;-84
2021/07/26 06:38:57;;;;;;;6.10;3.17;;;25.30;70.60;;;21.24;83.57;99941.81;5028654;28;20052;-85
2021/07/26 06:41:24;;;;;;;6.22;2.92;;;25.30;71.40;;;21.28;83.86;99936.56;5025587;28;20449;-84
2021/07/26 06:43:52;;;;;;;5.70;2.80;;;25.10;72.40;;;21.32;83.29;99932.16;5011203;28;20084;-84
2021/07/26 06:46:21;;;;;;;6.25;3.05;;;25.10;72.20;;;21.32;82.17;99934.09;5028053;28;20045;-84
2021/07/26 06:48:51;;;;;;;4.43;2.83;;;25.00;72.50;;;21.31;83.15;99936.06;5029986;28;20045;-84
2021/07/26 06:51:18;;;;;;;7.55;2.92;;;24.90;73.30;;;21.33;83.30;99944.91;5032414;28;20079;-84
2021/07/26 06:53:46;;;;;;;5.57;2.80;;;24.80;73.80;;;21.32;81.97;99943.22;5032070;28;20050;-84
2021/07/26 06:56:13;;;;;;;5.68;3.13;;;24.70;73.10;;;21.32;81.37;99945.19;5031297;28;20084;-84
2021/07/26 06:58:42;;;;;;;6.75;2.90;;;24.50;73.60;;;21.32;80.74;99954.31;5032151;28;20041;-84
2021/07/26 07:01:11;;;;;;;5.13;3.05;;;24.40;73.80;;;21.35;81.62;99955.72;5032176;28;20399;-85
2021/07/26 07:03:40;;;;;;;8.45;3.20;;;24.40;74.50;;;21.34;81.79;99954.88;5031892;28;20033;-84
2021/07/26 07:06:12;;;;;;;9.25;2.85;;;24.30;74.90;;;21.35;81.71;99951.00;5031240;28;20502;-84
2021/07/26 07:08:41;;;;;;;4.40;2.70;;;24.40;75.00;;;21.37;82.23;99957.09;5031804;28;20058;-85
2021/07/26 07:11:11;;;;;;;5.47;2.70;;;24.30;75.40;;;21.39;82.14;99952.13;5031573;28;20560;-85
2021/07/26 07:13:39;;;;;;;6.07;2.40;;;24.30;75.10;;;21.40;81.61;99951.03;5031465;28;20054;-85
2021/07/26 07:16:11;;;;;;;4.82;3.25;;;24.30;75.50;;;21.42;82.11;99959.91;5030800;28;20478;-85
2021/07/26 07:18:40;;;;;;;4.30;2.65;;;24.30;75.70;;;21.44;81.90;99956.91;5031592;28;20548;-85
2021/07/26 07:21:08;;;;;;;6.30;3.00;;;24.40;75.20;;;21.45;81.02;99953.00;5031338;28;20473;-85
2021/07/26 07:23:35;;;;;;;5.95;2.95;;;24.30;75.10;;;21.46;81.19;99955.53;5031463;28;20073;-85
2021/07/26 07:26:02;;;;;;;7.50;2.80;;;24.30;75.70;;;21.50;81.40;99949.47;5030727;28;20085;-85
2021/07/26 07:28:29;;;;;;;8.15;2.85;;;24.30;75.50;;;21.51;80.88;99951.94;5031485;28;20468;-84
2021/07/26 07:30:56;;;;;;;6.53;3.00;;;24.30;75.70;;;21.55;82.22;99952.22;5031484;28;20489;-85
2021/07/26 07:33:24;;;;;;;4.47;2.50;;;24.30;76.40;;;21.57;81.65;99950.88;5031221;28;20505;-85
2021/07/26 07:35:53;;;;;;;6.72;3.05;;;24.30;75.80;;;21.61;81.78;99945.59;5012677;28;20049;-85
2021/07/26 07:38:20;;;;;;;6.88;2.78;;;24.30;76.20;;;21.61;80.93;99951.13;5013176;28;20077;-84
2021/07/26 07:40:47;;;;;;;5.07;2.88;;;24.30;76.20;;;21.62;80.97;99958.34;5031077;28;20095;-84
2021/07/26 07:43:14;;;;;;;4.30;2.83;;;24.30;76.00;;;21.64;80.64;99956.13;5030989;28;20645;-84
2021/07/26 07:45:42;;;;;;;4.68;2.42;;;24.30;75.60;;;21.67;80.83;99950.06;5030929;28;20073;-84
2021/07/26 07:48:10;;;;;;;6.45;2.70;;;24.40;76.00;;;21.68;81.41;99948.94;5030060;28;20045;-84
2021/07/26 07:50:37;;;;;;;4.75;2.35;;;24.40;76.10;;;21.70;80.15;99959.75;5030925;28;20041;-83
2021/07/26 07:53:05;;;;;;;5.68;2.55;;;24.40;75.70;;;21.66;80.31;99953.91;5030942;28;20095;-83
2021/07/26 07:55:33;;;;;;;5.82;2.90;;;24.30;75.80;;;21.65;80.56;99963.34;5030921;28;20585;-83
2021/07/26 07:58:05;;;;;;;7.43;3.08;;;24.30;76.30;;;21.62;79.53;99958.34;5012215;28;20049;-83
2021/07/26 08:00:32;;;;;;;6.97;3.17;;;24.30;75.50;;;21.60;79.78;99966.09;5030671;28;20052;-83
2021/07/26 08:03:00;;;;;;;4.82;2.72;;;24.30;75.60;;;21.63;80.41;99966.38;5030590;28;20373;-83
2021/07/26 08:05:29;;;;;;;4.88;2.70;;;24.30;75.90;;;21.62;80.45;99959.16;5030342;28;20045;-84
2021/07/26 08:07:56;;;;;;;11.15;2.75;;;24.30;75.90;;;21.64;80.37;99967.22;5029869;28;20498;-84
2021/07/26 08:10:25;;;;;;;6.63;2.72;;;24.40;75.40;;;21.68;80.24;99968.31;5030570;28;20095;-84
2021/07/26 08:12:53;;;;;;;5.80;3.20;;;24.50;75.10;;;21.69;80.82;99970.00;5030306;28;20491;-84
2021/07/26 08:15:20;;;;;;;7.00;3.20;;;24.60;75.00;;;21.70;80.05;99966.13;5030308;28;20057;-84
2021/07/26 08:17:49;;;;;;;5.18;2.72;;;24.60;74.70;;;21.72;80.83;99963.91;5011793;28;20222;-84
2021/07/26 08:20:19;;;;;;;8.70;3.30;;;24.50;75.70;;;21.74;82.56;99961.72;5030220;28;20453;-84
2021/07/26 08:22:47;;;;;;;6.80;3.13;;;24.60;75.50;;;21.79;81.84;99967.25;5030096;28;20042;-84
2021/07/26 08:25:16;;;;;;;6.90;2.83;;;24.80;75.50;;;21.82;79.84;99969.50;5030129;28;20137;-84
2021/07/26 08:27:56;;;;;;;4.60;2.10;;;24.80;74.00;;;21.83;80.27;99973.91;5029423;28;20312;-84
2021/07/26 08:30:26;;;;;;;4.70;2.42;;;24.80;74.20;;;21.86;80.87;99970.59;5030205;28;20073;-84
2021/07/26 08:32:54;;;;;;;7.03;2.87;;;24.80;74.90;;;21.91;79.05;99980.03;5030433;28;20152;-84
2021/07/26 08:35:22;;;;;;;7.10;2.80;;;24.80;73.90;;;21.94;79.75;99974.78;5030394;28;20319;-85
2021/07/26 08:37:50;;;;;;;7.45;2.83;;;24.80;74.00;;;21.98;78.80;99978.66;5029321;28;20069;-84
2021/07/26 08:40:20;;;;;;;6.28;3.00;;;24.80;73.80;;;22.00;79.92;99978.41;5029972;28;20128;-83
2021/07/26 08:42:49;;;;;;;4.43;2.33;;;24.80;73.90;;;22.04;79.71;99985.06;5030042;28;20624;-86
2021/07/26 08:45:19;;;;;;;4.55;2.60;;;24.70;74.10;;;22.10;79.08;99983.13;5029799;28;20044;-83
2021/07/26 08:47:48;;;;;;;7.82;2.90;;;24.80;73.90;;;22.12;79.04;99987.28;5029019;28;20045;-84
2021/07/26 08:50:18;;;;;;;6.80;3.10;;;24.90;74.00;;;22.15;78.05;99989.50;5026617;28;20045;-84
2021/07/26 08:52:48;;;;;;;7.05;3.28;;;24.90;73.20;;;22.20;78.63;99992.31;5011718;28;20048;-84
2021/07/26 08:55:17;;;;;;;5.90;3.15;;;24.90;73.80;;;22.20;77.93;99989.53;5029533;28;20049;-84
2021/07/26 08:57:46;;;;;;;6.53;3.10;;;24.90;73.30;;;22.22;77.58;99995.63;5011073;28;20045;-84
2021/07/26 09:00:18;;;;;;;4.75;3.00;;;24.90;73.30;;;22.19;76.69;100001.72;5029504;28;20076;-84
2021/07/26 09:02:46;;;;;;;7.70;3.05;;;24.90;72.90;;;22.18;77.22;99994.50;5011882;28;20064;-85
2021/07/26 09:05:14;;;;;;;5.70;3.20;;;24.80;73.10;;;22.15;77.99;100003.38;5029391;28;20121;-84
2021/07/26 09:07:43;;;;;;;5.25;3.28;;;24.70;74.20;;;22.17;78.39;100006.69;5028928;28;20505;-85
2021/07/26 09:10:16;;;;;;;5.60;3.08;;;24.70;74.30;;;22.18;79.58;100005.59;5029474;28;20053;-84
2021/07/26 09:12:44;;;;;;;6.35;2.95;;;24.70;74.80;;;22.21;79.67;100007.81;5028796;28;20069;-85
2021/07/26 09:15:30;;;;;;;7.25;3.08;;;24.80;75.30;;;22.15;78.17;100006.13;5029394;28;20124;-84
2021/07/26 09:18:02;;;;;;;5.38;3.65;;;24.70;73.70;;;22.12;77.00;100017.75;5027783;28;20057;-85
2021/07/26 09:20:31;;;;;;;8.32;4.10;;;24.70;73.30;;;22.12;76.51;100011.41;5029294;28;20073;-84
2021/07/26 09:22:59;;;;;;;6.63;3.92;;;24.60;73.50;;;22.11;77.20;100007.78;5029089;28;20045;-85
2021/07/26 09:25:28;;;;;;;6.30;4.18;;;24.60;73.40;;;22.17;78.73;100006.69;5029289;28;20041;-85
2021/07/26 09:28:05;;;;;;;8.10;4.90;;;24.70;74.60;;;22.25;80.03;100008.94;5028473;28;20132;-85
2021/07/26 09:30:47;;;;;;;7.93;4.10;;;24.70;75.40;;;22.28;76.42;100017.84;5029116;28;20697;-84
2021/07/26 09:33:36;;;;;;;7.20;4.28;;;24.70;74.00;;;22.31;76.82;100012.56;5029091;28;20207;-89
2021/07/26 09:36:09;;;;;;;6.82;3.92;;;24.70;74.30;;;22.34;74.73;100009.25;5029633;28;20053;-91
2021/07/26 09:38:42;;;;;;;8.23;4.05;;;24.80;72.90;;;22.38;75.72;100013.13;5029323;28;20042;-87
2021/07/26 09:41:10;;;;;;;6.97;4.10;;;24.80;72.60;;;22.34;73.35;100013.97;5029344;28;20060;-89
2021/07/26 09:43:38;;;;;;;6.70;4.22;;;24.80;71.40;;;22.27;73.23;100024.50;5011766;28;20041;-88
2021/07/26 09:46:24;;;;;;;10.27;4.70;;;24.70;71.50;;;22.23;75.43;100018.63;5011178;28;20072;-89
2021/07/26 09:49:13;;;;;;;6.38;4.18;;;24.70;72.20;;;22.25;77.36;100010.91;5011976;28;20125;-89
2021/07/26 09:51:41;;;;;;;6.68;4.43;;;24.90;72.50;;;22.38;76.66;100020.63;5032619;28;20046;-88
2021/07/26 09:54:28;;;;;;;;;;;;;;;;;;;;;
2021/07/26 09:57:20;;;;;;;6.18;4.68;;;25.00;72.10;;;22.42;76.84;100005.91;5025909;28;20053;-89
2021/07/26 09:59:56;;;;;;;6.68;4.03;;;25.00;73.70;;;22.43;76.08;100006.78;5011589;28;20053;-89
2021/07/26 10:02:40;;;;;;;6.90;4.40;;;25.00;72.90;;;22.47;78.20;100002.34;5029035;28;20038;-89
2021/07/26 10:05:09;;;;;;;8.18;5.15;;;25.00;74.10;;;22.41;75.34;100004.28;5028810;28;20063;-88
2021/07/26 10:07:39;;;;;;;5.78;4.25;;;24.90;72.30;;;22.33;74.22;100007.59;5028388;28;20049;-89
2021/07/26 10:10:13;;;;;;;5.70;4.20;;;24.80;71.70;;;22.27;74.74;100014.22;5011232;28;20050;-90
2021/07/26 10:12:58;;;;;;;6.80;4.40;;;24.70;72.50;;;22.20;73.78;100008.94;5551115;22;20086;-92
2021/07/26 10:15:36;;;;;;;6.75;4.18;;;24.60;71.30;;;22.13;74.26;100005.59;5008909;28;20526;-87
2021/07/26 10:18:12;;;;;;;6.47;4.63;;;24.50;72.70;;;22.13;75.36;100008.34;5008966;28;20049;-86
2021/07/26 10:20:48;;;;;;;5.28;4.00;;;24.60;72.70;;;22.23;78.40;100008.34;5009381;28;20046;-89
2021/07/26 10:23:20;;;;;;;6.50;4.32;;;24.70;73.90;;;22.24;74.49;100004.50;5010596;28;20703;-88
2021/07/26 10:26:01;;;;;;;6.15;3.78;;;24.80;71.60;;;22.32;76.69;100011.47;5021038;28;20049;-94
2021/07/26 10:28:43;;;;;;;;;;;;;;;;;;;;;